createdAt,value
2023-02-23T00:01:27.569Z,100.00
2023-02-23T00:03:55.765Z,100.00
2023-02-23T00:06:23.442Z,100.00
2023-02-23T00:08:51.488Z,100.00
2023-02-23T00:11:19.764Z,100.00
2023-02-23T00:13:49.405Z,100.00
2023-02-23T00:16:24.880Z,100.00
2023-02-23T00:18:59.529Z,100.00
2023-02-23T00:21:29.214Z,100.00
2023-02-23T00:23:58.594Z,100.00
2023-02-23T00:26:30.601Z,100.00
2023-02-23T00:28:57.230Z,100.00
2023-02-23T00:31:25.953Z,100.00
2023-02-23T00:33:57.788Z,100.00
2023-02-23T00:36:30.748Z,100.00
2023-02-23T00:38:59.656Z,100.00
2023-02-23T00:41:29.783Z,100.00
2023-02-23T00:43:58.316Z,100.00
2023-02-23T00:46:29.383Z,100.00
2023-02-23T00:48:58.044Z,100.00
2023-02-23T00:51:26.769Z,100.00
2023-02-23T00:53:54.520Z,100.00
2023-02-23T00:56:21.411Z,100.00
2023-02-23T00:58:48.747Z,100.00
2023-02-23T01:01:16.262Z,100.00
2023-02-23T01:03:43.066Z,100.00
2023-02-23T01:06:12.640Z,100.00
2023-02-23T01:08:41.924Z,100.00
2023-02-23T01:11:13.494Z,100.00
2023-02-23T01:13:41.878Z,100.00
2023-02-23T01:16:11.486Z,100.00
2023-02-23T01:18:39.891Z,100.00
2023-02-23T01:21:15.786Z,100.00
2023-02-23T01:23:42.081Z,100.00
2023-02-23T01:26:19.714Z,100.00
2023-02-23T01:28:50.388Z,100.00
2023-02-23T01:31:19.100Z,100.00
2023-02-23T01:33:45.858Z,100.00
2023-02-23T01:36:12.948Z,100.00
2023-02-23T01:38:40.501Z,100.00
2023-02-23T01:41:08.343Z,100.00
2023-02-23T01:43:36.283Z,100.00
2023-02-23T01:46:03.160Z,100.00
2023-02-23T01:48:36.780Z,100.00
2023-02-23T01:51:08.327Z,100.00
2023-02-23T01:53:41.203Z,100.00
2023-02-23T01:56:11.365Z,100.00
2023-02-23T01:58:40.569Z,100.00
2023-02-23T02:01:07.118Z,100.00
2023-02-23T02:03:41.597Z,100.00
2023-02-23T02:06:14.962Z,100.00
2023-02-23T02:08:46.669Z,100.00
2023-02-23T02:11:40.949Z,100.00
2023-02-23T02:14:13.112Z,100.00
2023-02-23T02:17:20.122Z,100.00
2023-02-23T02:20:25.670Z,100.00
2023-02-23T02:23:08.892Z,100.00
2023-02-23T02:25:49.631Z,100.00
2023-02-23T02:28:22.125Z,100.00
2023-02-23T02:31:15.983Z,100.00
2023-02-23T02:34:13.130Z,100.00
2023-02-23T02:36:48.231Z,100.00
2023-02-23T02:39:45.929Z,100.00
2023-02-23T02:42:39.258Z,100.00
2023-02-23T02:45:14.473Z,100.00
2023-02-23T02:47:57.762Z,100.00
2023-02-23T02:50:55.921Z,100.00
2023-02-23T02:53:45.482Z,100.00
2023-02-23T02:56:19.040Z,100.00
2023-02-23T02:58:47.086Z,100.00
2023-02-23T03:01:34.426Z,100.00
2023-02-23T03:04:36.376Z,100.00
2023-02-23T03:07:33.351Z,100.00
2023-02-23T03:10:30.005Z,100.00
2023-02-23T03:13:21.285Z,100.00
2023-02-23T03:16:22.729Z,100.00
2023-02-23T03:19:35.010Z,100.00
2023-02-23T03:22:43.447Z,100.00
2023-02-23T03:25:36.298Z,100.00
2023-02-23T03:28:36.718Z,100.00
2023-02-23T03:31:35.291Z,100.00
2023-02-23T03:34:40.905Z,100.00
2023-02-23T03:37:57.506Z,100.00
2023-02-23T03:40:48.260Z,100.00
2023-02-23T03:43:40.301Z,100.00
2023-02-23T03:46:29.577Z,100.00
2023-02-23T03:49:19.299Z,100.00
2023-02-23T03:52:08.902Z,100.00
2023-02-23T03:55:04.497Z,100.00
2023-02-23T03:57:53.493Z,100.00
2023-02-23T04:00:54.883Z,100.00
2023-02-23T04:03:41.131Z,100.00
2023-02-23T04:06:31.625Z,100.00
2023-02-23T04:09:20.560Z,100.00
2023-02-23T04:12:09.942Z,100.00
2023-02-23T04:14:42.724Z,100.00
2023-02-23T04:17:11.934Z,100.00
2023-02-23T04:19:38.221Z,100.00
2023-02-23T04:22:04.714Z,100.00
2023-02-23T04:24:30.916Z,100.00
2023-02-23T04:26:57.672Z,100.00
2023-02-23T04:29:24.225Z,100.00
2023-02-23T04:31:51.230Z,100.00
2023-02-23T04:34:17.520Z,100.00
2023-02-23T04:36:44.016Z,100.00
2023-02-23T04:39:10.251Z,100.00
2023-02-23T04:41:36.775Z,100.00
2023-02-23T04:44:04.220Z,100.00
2023-02-23T04:46:30.914Z,100.00
2023-02-23T04:48:57.066Z,100.00
2023-02-23T04:51:23.541Z,100.00
2023-02-23T04:53:49.895Z,100.00
2023-02-23T04:56:16.841Z,100.00
2023-02-23T04:58:43.014Z,100.00
2023-02-23T05:01:09.560Z,100.00
2023-02-23T05:03:35.839Z,100.00
2023-02-23T05:06:03.179Z,100.00
2023-02-23T05:08:29.632Z,100.00
2023-02-23T05:10:56.144Z,100.00
2023-02-23T05:13:22.614Z,100.00
2023-02-23T05:15:49.678Z,100.00
2023-02-23T05:18:15.865Z,100.00
2023-02-23T05:20:46.825Z,100.00
2023-02-23T05:23:12.967Z,100.00
2023-02-23T05:25:39.910Z,100.00
2023-02-23T05:28:06.459Z,100.00
2023-02-23T05:30:33.426Z,100.00
2023-02-23T05:32:59.756Z,100.00
2023-02-23T05:35:26.201Z,100.00
2023-02-23T05:37:52.369Z,100.00
2023-02-23T05:40:19.042Z,100.00
2023-02-23T05:42:45.544Z,100.00
2023-02-23T05:45:12.361Z,100.00
2023-02-23T05:47:38.932Z,100.00
2023-02-23T05:50:09.222Z,100.00
2023-02-23T05:52:40.821Z,100.00
2023-02-23T05:55:09.814Z,100.00
2023-02-23T05:57:36.021Z,100.00
2023-02-23T06:00:05.053Z,100.00
2023-02-23T06:02:31.898Z,100.00
2023-02-23T06:04:59.587Z,100.00
2023-02-23T06:07:25.785Z,100.00
2023-02-23T06:09:52.372Z,100.00
2023-02-23T06:12:19.144Z,100.00
2023-02-23T06:14:45.639Z,100.00
2023-02-23T06:17:12.056Z,100.00
2023-02-23T06:19:38.582Z,100.00
2023-02-23T06:22:04.810Z,100.00
2023-02-23T06:24:31.413Z,100.00
2023-02-23T06:26:57.695Z,100.00
2023-02-23T06:29:24.215Z,100.00
2023-02-23T06:31:50.685Z,100.00
2023-02-23T06:34:18.319Z,100.00
2023-02-23T06:36:44.528Z,100.00
2023-02-23T06:39:11.507Z,100.00
2023-02-23T06:41:37.899Z,100.00
2023-02-23T06:44:04.887Z,100.00
2023-02-23T06:46:32.712Z,100.00
2023-02-23T06:48:59.281Z,100.00
2023-02-23T06:51:25.676Z,100.00
2023-02-23T06:53:52.645Z,100.00
2023-02-23T06:56:18.952Z,100.00
2023-02-23T06:58:45.945Z,100.00
2023-02-23T07:01:12.128Z,100.00
2023-02-23T07:03:39.054Z,100.00
2023-02-23T07:06:06.440Z,99.86
2023-02-23T07:08:33.772Z,98.94
2023-02-23T07:11:08.273Z,98.50
2023-02-23T07:13:35.129Z,98.20
2023-02-23T07:16:01.725Z,98.12
2023-02-23T07:18:28.280Z,98.07
2023-02-23T07:20:54.427Z,97.73
2023-02-23T07:23:21.622Z,98.39
2023-02-23T07:25:52.358Z,97.57
2023-02-23T07:28:18.905Z,97.18
2023-02-23T07:30:45.024Z,96.94
2023-02-23T07:33:11.677Z,97.11
2023-02-23T07:35:37.947Z,96.88
2023-02-23T07:38:06.676Z,96.47
2023-02-23T07:40:32.871Z,96.30
2023-02-23T07:42:59.971Z,96.94
2023-02-23T07:45:26.441Z,96.59
2023-02-23T07:47:53.204Z,96.48
2023-02-23T07:50:19.694Z,96.70
2023-02-23T07:52:46.428Z,96.17
2023-02-23T07:55:12.747Z,96.47
2023-02-23T07:57:39.579Z,96.21
2023-02-23T08:00:06.833Z,96.18
2023-02-23T08:02:43.183Z,96.05
2023-02-23T08:05:10.078Z,96.07
2023-02-23T08:07:37.048Z,96.58
2023-02-23T08:10:03.980Z,96.23
2023-02-23T08:12:33.323Z,96.46
2023-02-23T08:14:59.569Z,96.00
2023-02-23T08:17:26.765Z,96.06
2023-02-23T08:19:52.982Z,95.93
2023-02-23T08:22:20.632Z,95.92
2023-02-23T08:24:46.860Z,96.34
2023-02-23T08:27:13.600Z,96.21
2023-02-23T08:29:40.002Z,95.48
2023-02-23T08:32:06.618Z,95.85
2023-02-23T08:34:37.468Z,95.56
2023-02-23T08:37:05.365Z,95.09
2023-02-23T08:39:31.654Z,94.98
2023-02-23T08:41:58.133Z,94.58
2023-02-23T08:44:24.568Z,94.25
2023-02-23T08:46:53.024Z,94.21
2023-02-23T08:49:19.412Z,93.86
2023-02-23T08:51:46.233Z,93.56
2023-02-23T08:54:14.459Z,93.66
2023-02-23T08:56:41.649Z,93.13
2023-02-23T08:59:08.482Z,93.39
2023-02-23T09:01:36.393Z,93.59
2023-02-23T09:04:04.029Z,93.17
2023-02-23T09:06:31.800Z,93.27
2023-02-23T09:08:58.038Z,93.61
2023-02-23T09:11:24.994Z,93.73
2023-02-23T09:13:51.320Z,93.65
2023-02-23T09:16:18.392Z,93.67
2023-02-23T09:18:45.193Z,93.29
2023-02-23T09:21:21.767Z,93.24
2023-02-23T09:23:51.365Z,93.42
2023-02-23T09:26:19.360Z,93.44
2023-02-23T09:28:46.079Z,92.96
2023-02-23T09:31:16.725Z,92.88
2023-02-23T09:33:43.495Z,92.92
2023-02-23T09:36:15.722Z,92.83
2023-02-23T09:38:43.564Z,93.33
2023-02-23T09:41:25.454Z,93.15
2023-02-23T09:44:13.778Z,93.21
2023-02-23T09:47:03.565Z,92.77
2023-02-23T09:49:34.046Z,93.29
2023-02-23T09:52:03.208Z,93.84
2023-02-23T09:54:33.812Z,93.75
2023-02-23T09:57:10.550Z,93.84
2023-02-23T09:59:38.833Z,93.63
2023-02-23T10:02:33.778Z,93.64
2023-02-23T10:05:07.234Z,93.21
2023-02-23T10:07:55.258Z,93.34
2023-02-23T10:11:06.879Z,93.31
2023-02-23T10:13:41.333Z,93.00
2023-02-23T10:16:18.240Z,92.84
2023-02-23T10:18:53.945Z,92.33
2023-02-23T10:21:35.702Z,93.24
2023-02-23T10:24:13.083Z,92.68
2023-02-23T10:26:46.712Z,92.85
2023-02-23T10:29:49.421Z,92.67
2023-02-23T10:32:23.502Z,92.56
2023-02-23T10:34:55.456Z,92.37
2023-02-23T10:37:24.085Z,92.46
2023-02-23T10:39:51.528Z,91.96
2023-02-23T10:42:27.931Z,91.61
2023-02-23T10:44:56.183Z,91.35
2023-02-23T10:47:26.478Z,91.86
2023-02-23T10:49:55.151Z,91.92
2023-02-23T10:52:28.721Z,91.72
2023-02-23T10:54:55.695Z,92.19
2023-02-23T10:57:33.907Z,91.53
2023-02-23T11:00:15.927Z,91.03
2023-02-23T11:02:44.210Z,91.01
2023-02-23T11:05:32.371Z,91.33
2023-02-23T11:08:26.271Z,90.46
2023-02-23T11:11:07.546Z,90.47
2023-02-23T11:13:44.717Z,91.59
2023-02-23T11:16:37.726Z,90.95
2023-02-23T11:19:32.258Z,89.88
2023-02-23T11:21:59.568Z,89.97
2023-02-23T11:24:30.995Z,90.12
2023-02-23T11:27:06.288Z,90.01
2023-02-23T11:29:42.553Z,90.39
2023-02-23T11:32:16.604Z,90.06
2023-02-23T11:34:43.121Z,90.67
2023-02-23T11:37:13.670Z,89.97
2023-02-23T11:39:56.757Z,90.22
2023-02-23T11:42:32.801Z,90.61
2023-02-23T11:45:15.053Z,90.95
2023-02-23T11:47:48.519Z,90.86
2023-02-23T11:50:35.845Z,90.25
2023-02-23T11:53:14.702Z,90.08
2023-02-23T11:55:50.610Z,90.42
2023-02-23T11:58:26.312Z,90.50
2023-02-23T12:00:57.976Z,90.00
2023-02-23T12:03:26.966Z,90.12
2023-02-23T12:05:56.964Z,90.06
2023-02-23T12:08:35.825Z,90.22
2023-02-23T12:11:09.492Z,88.82
2023-02-23T12:13:39.882Z,89.06
2023-02-23T12:16:22.607Z,88.97
2023-02-23T12:19:01.859Z,89.34
2023-02-23T12:21:34.322Z,89.48
2023-02-23T12:24:11.536Z,89.26
2023-02-23T12:26:49.862Z,89.20
2023-02-23T12:29:31.789Z,89.48
2023-02-23T12:32:05.207Z,89.99
2023-02-23T12:34:49.098Z,90.08
2023-02-23T12:37:48.618Z,89.50
2023-02-23T12:40:27.425Z,89.73
2023-02-23T12:43:14.358Z,88.77
2023-02-23T12:45:43.615Z,88.71
2023-02-23T12:48:52.245Z,89.07
2023-02-23T12:51:31.905Z,88.67
2023-02-23T12:53:59.310Z,88.60
2023-02-23T12:56:34.941Z,89.20
2023-02-23T12:59:35.088Z,89.14
2023-02-23T13:02:12.085Z,89.16
2023-02-23T13:05:06.129Z,89.20
2023-02-23T13:07:44.721Z,89.17
2023-02-23T13:10:32.536Z,89.35
2023-02-23T13:13:23.735Z,90.20
2023-02-23T13:16:00.718Z,90.31
2023-02-23T13:18:51.607Z,90.36
2023-02-23T13:21:18.246Z,90.41
2023-02-23T13:24:10.791Z,90.73
2023-02-23T13:26:53.839Z,89.88
2023-02-23T13:29:45.814Z,90.14
2023-02-23T13:32:17.229Z,90.56
2023-02-23T13:34:57.758Z,90.41
2023-02-23T13:37:34.246Z,90.85
2023-02-23T13:40:26.213Z,91.27
2023-02-23T13:43:23.638Z,91.12
2023-02-23T13:46:01.103Z,91.57
2023-02-23T13:49:14.250Z,91.98
2023-02-23T13:51:51.327Z,92.08
2023-02-23T13:54:25.184Z,91.68
2023-02-23T13:56:56.135Z,91.86
2023-02-23T13:59:44.846Z,92.53
2023-02-23T14:02:30.112Z,92.26
2023-02-23T14:05:00.900Z,92.14
2023-02-23T14:07:37.156Z,92.53
2023-02-23T14:10:06.950Z,92.31
2023-02-23T14:12:42.089Z,91.69
2023-02-23T14:15:24.371Z,91.50
2023-02-23T14:17:54.992Z,91.12
2023-02-23T14:20:37.879Z,90.68
2023-02-23T14:23:20.000Z,91.75
2023-02-23T14:25:47.434Z,91.07
2023-02-23T14:28:23.169Z,90.94
2023-02-23T14:31:27.394Z,91.28
2023-02-23T14:34:00.182Z,91.60
2023-02-23T14:36:32.818Z,91.97
2023-02-23T14:39:02.941Z,92.47
2023-02-23T14:41:41.332Z,92.55
2023-02-23T14:44:28.940Z,92.41
2023-02-23T14:46:59.363Z,92.43
2023-02-23T14:49:27.788Z,92.63
2023-02-23T14:51:57.869Z,92.22
2023-02-23T14:54:32.191Z,92.96
2023-02-23T14:57:02.188Z,93.20
2023-02-23T14:59:37.460Z,93.19
2023-02-23T15:02:10.517Z,93.86
2023-02-23T15:04:41.364Z,93.76
2023-02-23T15:07:18.157Z,93.62
2023-02-23T15:09:46.467Z,93.58
2023-02-23T15:12:17.481Z,94.43
2023-02-23T15:14:45.466Z,95.21
2023-02-23T15:17:22.585Z,95.58
2023-02-23T15:20:06.017Z,95.62
2023-02-23T15:22:38.604Z,95.96
2023-02-23T15:25:19.511Z,96.29
2023-02-23T15:27:47.187Z,95.69
2023-02-23T15:30:31.236Z,95.96
2023-02-23T15:33:18.910Z,95.61
2023-02-23T15:35:54.073Z,96.18
2023-02-23T15:38:43.324Z,96.52
2023-02-23T15:41:28.492Z,96.59
2023-02-23T15:44:22.768Z,95.48
2023-02-23T15:47:03.680Z,96.68
2023-02-23T15:49:35.212Z,95.82
2023-02-23T15:52:23.663Z,97.14
2023-02-23T15:55:01.004Z,96.21
2023-02-23T15:57:55.953Z,97.03
2023-02-23T16:00:41.326Z,96.97
2023-02-23T16:03:24.172Z,97.73
2023-02-23T16:06:20.086Z,96.83
2023-02-23T16:09:26.244Z,97.55
2023-02-23T16:12:00.365Z,96.98
2023-02-23T16:14:35.401Z,97.52
2023-02-23T16:17:10.903Z,98.11
2023-02-23T16:19:40.354Z,100.00
2023-02-23T16:22:17.842Z,100.00
2023-02-23T16:24:49.759Z,99.97
2023-02-23T16:27:16.381Z,100.00
2023-02-23T16:29:43.492Z,100.00
2023-02-23T16:32:23.130Z,100.00
2023-02-23T16:34:57.266Z,100.00
2023-02-23T16:37:27.272Z,100.00
2023-02-23T16:39:55.746Z,100.00
2023-02-23T16:42:27.644Z,100.00
2023-02-23T16:44:54.703Z,100.00
2023-02-23T16:47:32.286Z,100.00
2023-02-23T16:50:00.726Z,100.00
2023-02-23T16:52:28.997Z,100.00
2023-02-23T16:54:56.198Z,100.00
2023-02-23T16:57:31.670Z,100.00
2023-02-23T16:59:59.552Z,100.00
2023-02-23T17:02:26.057Z,100.00
2023-02-23T17:04:58.159Z,100.00
2023-02-23T17:07:24.675Z,100.00
2023-02-23T17:09:51.398Z,100.00
2023-02-23T17:12:20.902Z,100.00
2023-02-23T17:14:49.054Z,100.00
2023-02-23T17:17:17.437Z,100.00
2023-02-23T17:19:46.058Z,100.00
2023-02-23T17:22:13.276Z,100.00
2023-02-23T17:24:41.257Z,100.00
2023-02-23T17:27:07.964Z,100.00
2023-02-23T17:29:34.910Z,100.00
2023-02-23T17:32:02.024Z,100.00
2023-02-23T17:34:29.636Z,100.00
2023-02-23T17:36:56.045Z,100.00
2023-02-23T17:39:27.267Z,100.00
2023-02-23T17:41:53.980Z,100.00
2023-02-23T17:44:20.831Z,100.00
2023-02-23T17:46:48.030Z,100.00
2023-02-23T17:49:14.820Z,100.00
2023-02-23T17:51:41.430Z,100.00
2023-02-23T17:54:08.374Z,100.00
2023-02-23T17:56:34.986Z,100.00
2023-02-23T17:59:02.528Z,100.00
2023-02-23T18:01:29.156Z,100.00
2023-02-23T18:03:58.033Z,100.00
2023-02-23T18:06:25.276Z,100.00
2023-02-23T18:08:52.189Z,100.00
2023-02-23T18:11:19.310Z,100.00
2023-02-23T18:13:48.055Z,100.00
2023-02-23T18:16:17.866Z,100.00
2023-02-23T18:18:47.179Z,100.00
2023-02-23T18:21:17.306Z,100.00
2023-02-23T18:23:44.665Z,100.00
2023-02-23T18:26:17.772Z,100.00
2023-02-23T18:28:45.427Z,100.00
2023-02-23T18:31:20.903Z,100.00
2023-02-23T18:33:52.323Z,100.00
2023-02-23T18:36:28.548Z,100.00
2023-02-23T18:38:56.972Z,100.00
2023-02-23T18:41:28.141Z,100.00
2023-02-23T18:44:01.296Z,100.00
2023-02-23T18:46:28.850Z,100.00
2023-02-23T18:48:55.903Z,100.00
2023-02-23T18:51:23.255Z,100.00
2023-02-23T18:53:51.209Z,100.00
2023-02-23T18:56:22.398Z,100.00
2023-02-23T18:58:54.266Z,100.00
2023-02-23T19:01:29.654Z,100.00
2023-02-23T19:04:02.211Z,100.00
2023-02-23T19:06:29.819Z,100.00
2023-02-23T19:09:02.697Z,100.00
2023-02-23T19:11:33.517Z,100.00
2023-02-23T19:14:03.838Z,100.00
2023-02-23T19:16:31.661Z,100.00
2023-02-23T19:18:59.869Z,100.00
2023-02-23T19:21:27.204Z,100.00
2023-02-23T19:23:57.382Z,100.00
2023-02-23T19:26:25.548Z,100.00
2023-02-23T19:28:53.242Z,100.00
2023-02-23T19:31:22.248Z,100.00
2023-02-23T19:33:50.286Z,100.00
2023-02-23T19:36:20.076Z,100.00
2023-02-23T19:38:48.717Z,100.00
2023-02-23T19:41:19.878Z,100.00
2023-02-23T19:43:47.672Z,100.00
2023-02-23T19:46:16.688Z,100.00
2023-02-23T19:48:48.110Z,100.00
2023-02-23T19:51:14.632Z,100.00
2023-02-23T19:53:43.823Z,100.00
2023-02-23T19:56:14.633Z,100.00
2023-02-23T19:58:46.080Z,100.00
2023-02-23T20:01:16.128Z,100.00
2023-02-23T20:03:44.598Z,100.00
2023-02-23T20:06:13.539Z,100.00
2023-02-23T20:08:41.546Z,100.00
2023-02-23T20:11:08.174Z,100.00
2023-02-23T20:13:35.360Z,100.00
2023-02-23T20:16:08.787Z,100.00
2023-02-23T20:18:37.848Z,100.00
2023-02-23T20:21:24.412Z,100.00
2023-02-23T20:23:54.256Z,100.00
2023-02-23T20:26:26.781Z,100.00
2023-02-23T20:28:54.826Z,100.00
2023-02-23T20:31:34.397Z,100.00
2023-02-23T20:34:07.223Z,100.00
2023-02-23T20:36:33.903Z,100.00
2023-02-23T20:39:00.913Z,100.00
2023-02-23T20:41:29.257Z,100.00
2023-02-23T20:43:57.275Z,100.00
2023-02-23T20:46:23.983Z,100.00
2023-02-23T20:48:50.819Z,100.00
2023-02-23T20:51:18.334Z,100.00
2023-02-23T20:53:47.412Z,100.00
2023-02-23T20:56:17.784Z,100.00
2023-02-23T20:58:45.563Z,100.00
2023-02-23T21:01:18.960Z,100.00
2023-02-23T21:03:46.922Z,100.00
2023-02-23T21:06:15.364Z,100.00
2023-02-23T21:08:42.068Z,100.00
2023-02-23T21:11:08.493Z,100.00
2023-02-23T21:13:35.731Z,100.00
2023-02-23T21:16:02.296Z,100.00
2023-02-23T21:18:30.257Z,100.00
2023-02-23T21:20:58.267Z,100.00
2023-02-23T21:23:25.288Z,100.00
2023-02-23T21:25:52.296Z,100.00
2023-02-23T21:28:19.985Z,100.00
2023-02-23T21:30:46.310Z,100.00
2023-02-23T21:33:13.228Z,100.00
2023-02-23T21:35:39.731Z,100.00
2023-02-23T21:38:07.506Z,100.00
2023-02-23T21:40:34.819Z,100.00
2023-02-23T21:43:06.137Z,100.00
2023-02-23T21:45:32.728Z,100.00
2023-02-23T21:47:59.464Z,100.00
2023-02-23T21:50:26.169Z,100.00
2023-02-23T21:52:55.416Z,100.00
2023-02-23T21:55:22.508Z,100.00
2023-02-23T21:57:51.174Z,100.00
2023-02-23T22:00:20.922Z,100.00
2023-02-23T22:02:48.743Z,100.00
2023-02-23T22:05:16.321Z,100.00
2023-02-23T22:07:51.132Z,100.00
2023-02-23T22:10:19.457Z,100.00
2023-02-23T22:12:49.432Z,100.00
2023-02-23T22:15:15.850Z,100.00
2023-02-23T22:17:43.374Z,100.00
2023-02-23T22:20:10.558Z,100.00
2023-02-23T22:22:37.314Z,100.00
2023-02-23T22:25:06.562Z,100.00
2023-02-23T22:27:33.521Z,100.00
2023-02-23T22:30:01.398Z,100.00
2023-02-23T22:32:31.878Z,100.00
2023-02-23T22:34:59.310Z,100.00
2023-02-23T22:37:29.158Z,100.00
2023-02-23T22:39:57.261Z,100.00
2023-02-23T22:42:23.814Z,100.00
2023-02-23T22:44:50.489Z,100.00
2023-02-23T22:47:16.924Z,100.00
2023-02-23T22:49:46.065Z,100.00
2023-02-23T22:52:12.853Z,100.00
2023-02-23T22:54:39.076Z,100.00
2023-02-23T22:57:06.415Z,100.00
2023-02-23T22:59:32.599Z,100.00
2023-02-23T23:01:59.066Z,100.00
2023-02-23T23:04:42.081Z,100.00
2023-02-23T23:07:13.389Z,100.00
2023-02-23T23:09:39.676Z,100.00
2023-02-23T23:12:06.374Z,100.00
2023-02-23T23:14:32.870Z,100.00
2023-02-23T23:16:59.689Z,100.00
2023-02-23T23:19:26.191Z,100.00
2023-02-23T23:21:54.761Z,100.00
2023-02-23T23:24:22.626Z,100.00
2023-02-23T23:26:54.656Z,100.00
2023-02-23T23:29:22.914Z,100.00
2023-02-23T23:31:50.855Z,100.00
2023-02-23T23:34:20.851Z,100.00
2023-02-23T23:36:48.855Z,100.00
2023-02-23T23:39:21.380Z,100.00
2023-02-23T23:41:49.416Z,100.00
2023-02-23T23:44:20.763Z,100.00
2023-02-23T23:46:49.937Z,100.00
2023-02-23T23:49:18.522Z,100.00
2023-02-23T23:51:50.881Z,100.00
2023-02-23T23:54:23.765Z,100.00
2023-02-23T23:56:50.539Z,100.00
2023-02-23T23:59:20.627Z,100.00
